Enter the Airport ICAO Code

Search by Airport or City

Current Weather

LEVX | Vigo–Peinador Airport

Vigo, Galicia, Spain

Last Update 12 Minutes Ago

Rain, Fog Banks

Temperature of 08 ºC

Light Winds from Variable Directions

Temperature

08 ºC

Dew Point Temperature

08 ºC

Relative Humidity

100 %

Wind Direction

Variable

Wind Velocity

4 km/h (02 kt)

Gusts

None

Visibility

Reduced to 4.0 Kilometers

Sea Level Pressure

0998 hPa (Hectopascals)

Layers of Clouds

30% to 60% of Sky Covered from 152 mts (500 ft) Above Ground Level.

60% to 90% of Sky Covered from 488 mts (1600 ft) Above Ground Level.

METAR LEVX 160800Z VRB02KT 4000 1000E RA BCFG SCT005 BKN016 08/08 Q0998 NOSIG

Weather Forecast

LEVX | Vigo–Peinador Airport

Vigo, Galicia, Spain

Forecast valid for the next 22 Hours

In the next 2 hours it is expected the begining of:

Moderate Winds from North

From now on it is expected 2 hours with intermittent periods of:

Light Rain, Fog

Maximum Temperature

08 ºC in 4 Hours

Minimum Temperature

03 ºC in 22 Hours

TAF LEVX 160500Z 1606/1706 14005KT 9999 SCT010 BKN030 TX08/1612Z TN03/1706Z BECMG 1608/1610 36010KT TEMPO 1606/1618 3000 RA BKN014 TEMPO 1606/1610 0350 -RA FG VV001